Aviation Digital Data Service (ADDS)

Output produced by METARs form (0441 UTC 26 June 2019)
found at http://www.aviationweather.gov/metar/data/
 
METAR text: VTCP 260400Z 21007KT 130V250 9999 SCT025 32/25 Q1007 NOSIG
Conditions at: VTCP (PHRAE , TH) observed 0400 UTC 26 June 2019
Temperature: 32.0°C (90°F)
Dewpoint: 25.0°C (77°F) [RH = 67%]
Pressure (altimeter): 29.73 inches Hg (1007.0 mb)
Winds: from the SSW (210 degrees) at 8 MPH (7 knots; 3.6 m/s)
Visibility: 6 or more miles (10+ km)
Ceiling: at least 12,000 feet AGL
Clouds: scattered clouds at 2500 feet AGL
Weather: no significant weather observed at this time

METAR text: VTCP 260300Z 21006KT 130V250 9999 SCT025 30/25 Q1008 NOSIG
Conditions at: VTCP (PHRAE , TH) observed 0300 UTC 26 June 2019
Temperature: 30.0°C (86°F)
Dewpoint: 25.0°C (77°F) [RH = 75%]
Pressure (altimeter): 29.76 inches Hg (1008.0 mb)
Winds: from the SSW (210 degrees) at 7 MPH (6 knots; 3.1 m/s)
Visibility: 6 or more miles (10+ km)
Ceiling: at least 12,000 feet AGL
Clouds: scattered clouds at 2500 feet AGL
Weather: no significant weather observed at this time

METAR text: VTCP 260200Z 23004KT 190V250 9999 FEW015 SCT080 27/25 Q1008 NOSIG
Conditions at: VTCP (PHRAE , TH) observed 0200 UTC 26 June 2019
Temperature: 27.0°C (81°F)
Dewpoint: 25.0°C (77°F) [RH = 89%]
Pressure (altimeter): 29.76 inches Hg (1008.0 mb)
Winds: from the SW (230 degrees) at 5 MPH (4 knots; 2.1 m/s)
Visibility: 6 or more miles (10+ km)
Ceiling: at least 12,000 feet AGL
Clouds: few clouds at 1500 feet AGL
scattered clouds at 8000 feet AGL
Weather: no significant weather observed at this time

METAR text: VTCP 260100Z 00000KT 9999 FEW025 BKN100 26/25 Q1008 NOSIG
Conditions at: VTCP (PHRAE , TH) observed 0100 UTC 26 June 2019
Temperature: 26.0°C (79°F)
Dewpoint: 25.0°C (77°F) [RH = 94%]
Pressure (altimeter): 29.76 inches Hg (1008.0 mb)
Winds: calm
Visibility: 6 or more miles (10+ km)
Ceiling: 10000 feet AGL
Clouds: few clouds at 2500 feet AGL
broken clouds at 10000 feet AGL
Weather: no significant weather observed at this time

METAR text: VTCP 260000Z VRB02KT 9999 FEW025 BKN100 25/25 Q1008 NOSIG
Conditions at: VTCP (PHRAE , TH) observed 0000 UTC 26 June 2019
Temperature: 25.0°C (77°F)
Dewpoint: 25.0°C (77°F) [RH = 100%]
Pressure (altimeter): 29.76 inches Hg (1008.0 mb)
Winds: variable direction winds at 2 MPH (2 knots; 1.0 m/s)
Visibility: 6 or more miles (10+ km)
Ceiling: 10000 feet AGL
Clouds: few clouds at 2500 feet AGL
broken clouds at 10000 feet AGL
Weather: no significant weather observed at this time

METAR text: VTCP 251100Z 22006KT 190V260 9999 FEW025 34/24 Q1004 NOSIG
Conditions at: VTCP (PHRAE , TH) observed 1100 UTC 25 June 2019
Temperature: 34.0°C (93°F)
Dewpoint: 24.0°C (75°F) [RH = 56%]
Pressure (altimeter): 29.65 inches Hg (1004.0 mb)
Winds: from the SW (220 degrees) at 7 MPH (6 knots; 3.1 m/s)
Visibility: 6 or more miles (10+ km)
Ceiling: at least 12,000 feet AGL
Clouds: few clouds at 2500 feet AGL
Weather: no significant weather observed at this time

METAR text: VTCP 251000Z 24005KT 200V300 9999 FEW025 36/24 Q1004 NOSIG
Conditions at: VTCP (PHRAE , TH) observed 1000 UTC 25 June 2019
Temperature: 36.0°C (97°F)
Dewpoint: 24.0°C (75°F) [RH = 50%]
Pressure (altimeter): 29.65 inches Hg (1004.0 mb)
Winds: from the WSW (240 degrees) at 6 MPH (5 knots; 2.6 m/s)
Visibility: 6 or more miles (10+ km)
Ceiling: at least 12,000 feet AGL
Clouds: few clouds at 2500 feet AGL
Weather: no significant weather observed at this time

METAR text: VTCP 250900Z 23007KT 190V260 9999 FEW025 36/24 Q1004 NOSIG
Conditions at: VTCP (PHRAE , TH) observed 0900 UTC 25 June 2019
Temperature: 36.0°C (97°F)
Dewpoint: 24.0°C (75°F) [RH = 50%]
Pressure (altimeter): 29.65 inches Hg (1004.0 mb)
Winds: from the SW (230 degrees) at 8 MPH (7 knots; 3.6 m/s)
Visibility: 6 or more miles (10+ km)
Ceiling: at least 12,000 feet AGL
Clouds: few clouds at 2500 feet AGL
Weather: no significant weather observed at this time

METAR text: VTCP 250800Z 22010KT 170V250 9999 SCT025 36/24 Q1005 NOSIG
Conditions at: VTCP (PHRAE , TH) observed 0800 UTC 25 June 2019
Temperature: 36.0°C (97°F)
Dewpoint: 24.0°C (75°F) [RH = 50%]
Pressure (altimeter): 29.68 inches Hg (1005.0 mb)
Winds: from the SW (220 degrees) at 12 MPH (10 knots; 5.1 m/s)
Visibility: 6 or more miles (10+ km)
Ceiling: at least 12,000 feet AGL
Clouds: scattered clouds at 2500 feet AGL
Weather: no significant weather observed at this time

METAR text: VTCP 250700Z 25009KT 200V300 9999 FEW015 SCT025 35/25 Q1005 NOSIG
Conditions at: VTCP (PHRAE , TH) observed 0700 UTC 25 June 2019
Temperature: 35.0°C (95°F)
Dewpoint: 25.0°C (77°F) [RH = 56%]
Pressure (altimeter): 29.68 inches Hg (1005.0 mb)
Winds: from the WSW (250 degrees) at 10 MPH (9 knots; 4.6 m/s)
Visibility: 6 or more miles (10+ km)
Ceiling: at least 12,000 feet AGL
Clouds: few clouds at 1500 feet AGL
scattered clouds at 2500 feet AGL
Weather: no significant weather observed at this time

METAR text: VTCP 250600Z 21009KT 160V250 9999 FEW015 SCT025 34/24 Q1007 NOSIG
Conditions at: VTCP (PHRAE , TH) observed 0600 UTC 25 June 2019
Temperature: 34.0°C (93°F)
Dewpoint: 24.0°C (75°F) [RH = 56%]
Pressure (altimeter): 29.73 inches Hg (1007.0 mb)
Winds: from the SSW (210 degrees) at 10 MPH (9 knots; 4.6 m/s)
Visibility: 6 or more miles (10+ km)
Ceiling: at least 12,000 feet AGL
Clouds: few clouds at 1500 feet AGL
scattered clouds at 2500 feet AGL
Weather: no significant weather observed at this time

METAR text: VTCP 250500Z 24009KT 200V280 9999 BKN025 33/24 Q1008 NOSIG
Conditions at: VTCP (PHRAE , TH) observed 0500 UTC 25 June 2019
Temperature: 33.0°C (91°F)
Dewpoint: 24.0°C (75°F) [RH = 59%]
Pressure (altimeter): 29.76 inches Hg (1008.0 mb)
Winds: from the WSW (240 degrees) at 10 MPH (9 knots; 4.6 m/s)
Visibility: 6 or more miles (10+ km)
Ceiling: 2500 feet AGL
Clouds: broken clouds at 2500 feet AGL
Weather: no significant weather observed at this time

METAR text: VTCP 250400Z 24010KT 210V280 9999 BKN025 31/24 Q1008 NOSIG
Conditions at: VTCP (PHRAE , TH) observed 0400 UTC 25 June 2019
Temperature: 31.0°C (88°F)
Dewpoint: 24.0°C (75°F) [RH = 66%]
Pressure (altimeter): 29.76 inches Hg (1008.0 mb)
Winds: from the WSW (240 degrees) at 12 MPH (10 knots; 5.1 m/s)
Visibility: 6 or more miles (10+ km)
Ceiling: 2500 feet AGL
Clouds: broken clouds at 2500 feet AGL
Weather: no significant weather observed at this time

METAR text: VTCP 250300Z 23008KT 180V290 9999 BKN025 31/24 Q1009 NOSIG
Conditions at: VTCP (PHRAE , TH) observed 0300 UTC 25 June 2019
Temperature: 31.0°C (88°F)
Dewpoint: 24.0°C (75°F) [RH = 66%]
Pressure (altimeter): 29.79 inches Hg (1009.0 mb)
Winds: from the SW (230 degrees) at 9 MPH (8 knots; 4.1 m/s)
Visibility: 6 or more miles (10+ km)
Ceiling: 2500 feet AGL
Clouds: broken clouds at 2500 feet AGL
Weather: no significant weather observed at this time

METAR text: VTCP 250200Z 25007KT 190V300 9999 FEW025 30/25 Q1009 NOSIG
Conditions at: VTCP (PHRAE , TH) observed 0200 UTC 25 June 2019
Temperature: 30.0°C (86°F)
Dewpoint: 25.0°C (77°F) [RH = 75%]
Pressure (altimeter): 29.79 inches Hg (1009.0 mb)
Winds: from the WSW (250 degrees) at 8 MPH (7 knots; 3.6 m/s)
Visibility: 6 or more miles (10+ km)
Ceiling: at least 12,000 feet AGL
Clouds: few clouds at 2500 feet AGL
Weather: no significant weather observed at this time

METAR text: VTCP 250100Z 23005KT 190V280 9999 FEW020 28/24 Q1009 NOSIG
Conditions at: VTCP (PHRAE , TH) observed 0100 UTC 25 June 2019
Temperature: 28.0°C (82°F)
Dewpoint: 24.0°C (75°F) [RH = 79%]
Pressure (altimeter): 29.79 inches Hg (1009.0 mb)
Winds: from the SW (230 degrees) at 6 MPH (5 knots; 2.6 m/s)
Visibility: 6 or more miles (10+ km)
Ceiling: at least 12,000 feet AGL
Clouds: few clouds at 2000 feet AGL
Weather: no significant weather observed at this time

METAR text: VTCP 250000Z 21004KT 170V270 9000 FEW025 27/24 Q1008 NOSIG
Conditions at: VTCP (PHRAE , TH) observed 0000 UTC 25 June 2019
Temperature: 27.0°C (81°F)
Dewpoint: 24.0°C (75°F) [RH = 84%]
Pressure (altimeter): 29.76 inches Hg (1008.0 mb)
Winds: from the SSW (210 degrees) at 5 MPH (4 knots; 2.1 m/s)
Visibility: 6 miles ( 9 km)
Ceiling: at least 12,000 feet AGL
Clouds: few clouds at 2500 feet AGL
Weather: no significant weather observed at this time

Forecast for: VTCP (PHRAE , TH)
Text: TAF VTCP 252300Z 2600/2624 22005KT 9999 BKN025
Forecast period: 0000 UTC 26 June 2019 to 0000 UTC 27 June 2019
Forecast type: FROM: standard forecast or significant change
Winds: from the SW (220 degrees) at 6 MPH (5 knots; 2.6 m/s)
Visibility: 6 or more miles 10+ km)
Ceiling: 2500 feet AGL
Clouds: broken clouds at 2500 feet AGL
Weather: no significant weather forecast for this period
Text: TEMPO 2609/2615 VRB15G25KT 5000 TSRA FEW020CB BKN025
Forecast period: 0900 to 1500 UTC 26 June 2019
Forecast type: TEMPORARY: The following changes expected for less than half the time period
Winds: variable direction winds at 17 MPH (15 knots; 7.7 m/s)
gusting to 29 MPH (25 knots; 12.9 m/s)
Visibility: 3 miles (5 km)
Ceiling: 2500 feet AGL
Clouds: few clouds at 2000 feet AGL
broken clouds at 2500 feet AGL
Weather: TSRA  (rain associated with thunderstorm(s))